createdAt,value
2017-03-26T00:00:52.234Z,14.22
2017-03-26T00:01:57.902Z,14.25
2017-03-26T00:03:04.145Z,13.53
2017-03-26T00:04:09.861Z,13.52
2017-03-26T00:05:14.561Z,15.22
2017-03-26T00:06:19.397Z,13.50
2017-03-26T00:07:25.652Z,15.90
2017-03-26T00:08:31.928Z,17.33
2017-03-26T00:09:36.735Z,12.48
2017-03-26T00:10:42.273Z,13.78
2017-03-26T00:11:48.672Z,15.67
2017-03-26T00:12:54.425Z,12.73
2017-03-26T00:13:59.311Z,14.90
2017-03-26T00:15:05.742Z,14.23
2017-03-26T00:16:11.476Z,13.27
2017-03-26T00:17:17.329Z,13.80
2017-03-26T00:18:22.937Z,13.82
2017-03-26T00:19:27.660Z,11.98
2017-03-26T00:20:33.900Z,13.95
2017-03-26T00:21:38.573Z,13.93
2017-03-26T00:22:44.989Z,13.97
2017-03-26T00:23:49.758Z,15.12
2017-03-26T00:24:55.438Z,14.83
2017-03-26T00:26:00.944Z,13.17
2017-03-26T00:27:06.560Z,11.60
2017-03-26T00:28:12.253Z,13.58
2017-03-26T00:29:17.750Z,13.70
2017-03-26T00:30:23.423Z,12.30
2017-03-26T00:31:28.400Z,15.17
2017-03-26T00:32:33.893Z,17.37
2017-03-26T00:33:39.276Z,15.65
2017-03-26T00:34:45.672Z,12.25
2017-03-26T00:35:51.236Z,13.33
2017-03-26T00:36:57.629Z,12.62
2017-03-26T00:38:03.241Z,13.40
2017-03-26T00:39:08.369Z,13.82
2017-03-26T00:40:13.860Z,14.92
2017-03-26T00:41:20.285Z,12.73
2017-03-26T00:42:25.140Z,14.58
2017-03-26T00:43:30.678Z,13.70
2017-03-26T00:44:37.089Z,12.17
2017-03-26T00:45:42.724Z,14.90
2017-03-26T00:46:48.416Z,14.77
2017-03-26T00:47:54.004Z,16.12
2017-03-26T00:48:58.801Z,13.28
2017-03-26T00:50:03.507Z,17.88
2017-03-26T00:51:10.022Z,13.62
2017-03-26T00:52:15.625Z,12.33
2017-03-26T00:53:20.453Z,14.32
2017-03-26T00:54:26.921Z,13.88
2017-03-26T00:55:31.676Z,15.50
2017-03-26T00:56:37.400Z,14.43
2017-03-26T00:57:42.879Z,12.73
2017-03-26T00:58:47.582Z,12.37
2017-03-26T00:59:53.158Z,12.82
2017-03-26T01:00:59.578Z,13.38
2017-03-26T01:02:04.301Z,13.65
2017-03-26T01:03:10.741Z,12.88
2017-03-26T01:04:16.318Z,12.58
2017-03-26T01:05:21.131Z,13.33
2017-03-26T01:06:27.398Z,14.67
2017-03-26T01:07:33.793Z,14.00
2017-03-26T01:08:38.677Z,13.40
2017-03-26T01:09:44.094Z,14.43
2017-03-26T01:10:49.596Z,13.33
2017-03-26T01:11:55.274Z,14.12
2017-03-26T01:13:00.933Z,14.58
2017-03-26T01:14:08.393Z,11.92
2017-03-26T01:15:13.169Z,13.45
2017-03-26T01:16:18.844Z,14.08
2017-03-26T01:17:23.547Z,14.52
2017-03-26T01:18:28.970Z,13.58
2017-03-26T01:19:34.569Z,13.50
2017-03-26T01:20:39.257Z,11.72
2017-03-26T01:21:44.057Z,13.47
2017-03-26T01:22:50.419Z,13.38
2017-03-26T01:23:56.009Z,12.05
2017-03-26T01:25:00.776Z,13.22
2017-03-26T01:26:07.268Z,13.05
2017-03-26T01:27:12.032Z,17.00
2017-03-26T01:28:18.388Z,12.40
2017-03-26T01:29:24.203Z,12.43
2017-03-26T01:30:29.798Z,15.00
2017-03-26T01:31:34.528Z,12.37
2017-03-26T01:32:40.047Z,13.35
2017-03-26T01:33:44.846Z,12.62
2017-03-26T01:34:51.259Z,11.90
2017-03-26T01:35:56.947Z,12.82
2017-03-26T01:37:01.682Z,13.08
2017-03-26T01:38:08.030Z,14.68
2017-03-26T01:39:14.549Z,15.95
2017-03-26T01:40:20.247Z,12.20
2017-03-26T01:41:27.588Z,14.58
2017-03-26T01:42:32.488Z,13.00
2017-03-26T01:43:38.170Z,14.32
2017-03-26T01:44:43.704Z,12.33
2017-03-26T01:45:49.173Z,14.98
2017-03-26T01:46:55.605Z,16.25
2017-03-26T01:48:01.409Z,12.62
2017-03-26T01:49:06.328Z,14.77
2017-03-26T01:50:11.053Z,13.40
2017-03-26T01:51:16.732Z,12.95
2017-03-26T01:52:22.252Z,12.12
2017-03-26T01:53:28.006Z,13.83
2017-03-26T01:54:33.589Z,15.92
2017-03-26T01:55:38.430Z,11.90
2017-03-26T01:56:43.983Z,14.23
2017-03-26T01:57:50.388Z,13.98
2017-03-26T01:58:56.033Z,14.92
2017-03-26T02:00:02.406Z,14.98
2017-03-26T02:01:08.141Z,12.82
2017-03-26T02:02:12.897Z,13.42
2017-03-26T02:03:18.642Z,14.05
2017-03-26T02:04:24.156Z,16.62
2017-03-26T02:05:29.625Z,11.95
2017-03-26T02:06:35.481Z,12.17
2017-03-26T02:07:40.297Z,13.57
2017-03-26T02:08:46.829Z,13.08
2017-03-26T02:09:52.453Z,14.52
2017-03-26T02:10:57.476Z,18.68
2017-03-26T02:12:02.912Z,12.45
2017-03-26T02:13:08.521Z,13.97
2017-03-26T02:14:14.198Z,13.88
2017-03-26T02:15:20.353Z,12.45
2017-03-26T02:16:25.321Z,11.78
2017-03-26T02:17:30.034Z,12.23
2017-03-26T02:18:35.591Z,15.22
2017-03-26T02:19:41.145Z,11.87
2017-03-26T02:20:46.929Z,13.42
2017-03-26T02:21:52.577Z,18.15
2017-03-26T02:22:58.121Z,11.63
2017-03-26T02:24:03.114Z,12.52
2017-03-26T02:25:09.536Z,14.53
2017-03-26T02:26:14.376Z,11.62
2017-03-26T02:27:20.019Z,12.67
2017-03-26T02:28:25.589Z,11.92
2017-03-26T02:29:32.015Z,12.53
2017-03-26T02:30:37.008Z,11.90
2017-03-26T02:31:43.393Z,12.52
2017-03-26T02:32:48.931Z,12.35
2017-03-26T02:33:54.424Z,12.12
2017-03-26T02:34:59.981Z,13.07
2017-03-26T02:36:04.994Z,11.12
2017-03-26T02:37:10.516Z,11.63
2017-03-26T02:38:16.854Z,11.02
2017-03-26T02:39:21.633Z,11.37
2017-03-26T02:40:27.164Z,11.02
2017-03-26T02:41:33.599Z,10.93
2017-03-26T02:42:39.361Z,11.77
2017-03-26T02:43:44.998Z,10.73
2017-03-26T02:44:50.634Z,11.80
2017-03-26T02:45:56.163Z,12.20
2017-03-26T02:47:01.057Z,12.55
2017-03-26T02:48:07.333Z,10.45
2017-03-26T02:49:12.833Z,11.17
2017-03-26T02:50:17.617Z,11.62
2017-03-26T02:51:23.121Z,11.32
2017-03-26T02:52:29.485Z,14.05
2017-03-26T02:53:34.355Z,11.58
2017-03-26T02:54:40.701Z,10.22
2017-03-26T02:55:45.505Z,10.42
2017-03-26T02:56:51.872Z,11.32
2017-03-26T02:57:56.905Z,12.13
2017-03-26T02:59:03.110Z,11.48
2017-03-26T03:00:09.529Z,13.20
2017-03-26T03:01:15.072Z,12.65
2017-03-26T03:02:20.913Z,10.85
2017-03-26T03:03:25.698Z,10.42
2017-03-26T03:04:32.096Z,10.73
2017-03-26T03:05:37.107Z,12.42
2017-03-26T03:06:42.673Z,10.52
2017-03-26T03:07:47.526Z,10.63
2017-03-26T03:08:53.067Z,11.32
2017-03-26T03:09:58.674Z,12.07
2017-03-26T03:11:04.141Z,10.68
2017-03-26T03:12:10.668Z,13.08
2017-03-26T03:13:16.224Z,11.47
2017-03-26T03:14:21.910Z,10.78
2017-03-26T03:15:27.537Z,11.27
2017-03-26T03:16:33.964Z,12.85
2017-03-26T03:17:38.844Z,10.63
2017-03-26T03:18:45.168Z,14.12
2017-03-26T03:19:50.769Z,13.05
2017-03-26T03:20:56.452Z,9.55
2017-03-26T03:22:01.261Z,11.40
2017-03-26T03:23:06.898Z,9.40
2017-03-26T03:24:13.209Z,10.12
2017-03-26T03:25:18.092Z,13.88
2017-03-26T03:26:24.509Z,11.20
2017-03-26T03:27:30.199Z,13.72
2017-03-26T03:28:35.045Z,11.07
2017-03-26T03:29:40.523Z,10.43
2017-03-26T03:30:46.204Z,10.85
2017-03-26T03:31:52.381Z,10.27
2017-03-26T03:32:57.269Z,10.07
2017-03-26T03:34:02.930Z,10.35
2017-03-26T03:35:08.449Z,11.03
2017-03-26T03:36:14.125Z,10.40
2017-03-26T03:37:19.897Z,10.07
2017-03-26T03:38:26.217Z,9.25
2017-03-26T03:39:31.804Z,9.80
2017-03-26T03:40:37.472Z,10.32
2017-03-26T03:41:42.968Z,12.07
2017-03-26T03:42:47.818Z,11.15
2017-03-26T03:43:53.448Z,10.57
2017-03-26T03:44:59.030Z,12.48
2017-03-26T03:46:05.493Z,10.23
2017-03-26T03:47:10.257Z,9.57
2017-03-26T03:48:15.868Z,12.12
2017-03-26T03:49:20.720Z,9.68
2017-03-26T03:50:27.102Z,10.42
2017-03-26T03:51:31.817Z,10.35
2017-03-26T03:52:36.577Z,10.07
2017-03-26T03:53:42.214Z,12.50
2017-03-26T03:54:47.721Z,8.80
2017-03-26T03:55:53.297Z,11.15
2017-03-26T03:56:58.972Z,13.02
2017-03-26T03:58:04.610Z,9.67
2017-03-26T03:59:09.406Z,10.48
2017-03-26T04:00:14.932Z,9.00
2017-03-26T04:01:20.573Z,9.05
2017-03-26T04:02:27.077Z,9.95
2017-03-26T04:03:31.785Z,10.08
2017-03-26T04:04:37.526Z,10.00
2017-03-26T04:05:43.056Z,10.02
2017-03-26T04:06:48.534Z,9.20
2017-03-26T04:07:54.151Z,9.22
2017-03-26T04:08:58.910Z,8.67
2017-03-26T04:10:05.202Z,10.08
2017-03-26T04:11:10.878Z,11.97
2017-03-26T04:12:15.704Z,9.60
2017-03-26T04:13:21.306Z,13.75
2017-03-26T04:14:27.655Z,9.93
2017-03-26T04:15:33.271Z,10.62
2017-03-26T04:16:39.444Z,10.52
2017-03-26T04:17:45.577Z,10.20
2017-03-26T04:18:51.174Z,9.65
2017-03-26T04:19:56.074Z,9.73
2017-03-26T04:21:01.581Z,10.87
2017-03-26T04:22:06.299Z,10.12
2017-03-26T04:23:11.896Z,10.77
2017-03-26T04:24:17.477Z,9.52
2017-03-26T04:25:22.449Z,11.23
2017-03-26T04:26:27.960Z,11.97
2017-03-26T04:27:32.735Z,9.77
2017-03-26T04:28:39.094Z,9.87
2017-03-26T04:29:43.937Z,10.18
2017-03-26T04:30:49.425Z,12.87
2017-03-26T04:31:55.088Z,9.95
2017-03-26T04:33:00.605Z,10.35
2017-03-26T04:34:06.101Z,12.10
2017-03-26T04:35:11.044Z,10.25
2017-03-26T04:36:16.560Z,10.05
2017-03-26T04:37:23.053Z,12.22
2017-03-26T04:38:28.537Z,11.28
2017-03-26T04:39:33.434Z,11.53
2017-03-26T04:40:39.151Z,11.08
2017-03-26T04:41:45.505Z,10.22
2017-03-26T04:42:51.072Z,10.48
2017-03-26T04:43:56.014Z,12.20
2017-03-26T04:45:01.625Z,10.82
2017-03-26T04:46:07.302Z,10.10
2017-03-26T04:47:13.566Z,10.37
2017-03-26T04:48:18.268Z,11.45
2017-03-26T04:49:23.897Z,11.00
2017-03-26T04:50:29.498Z,11.27
2017-03-26T04:51:35.928Z,12.67
2017-03-26T04:52:40.753Z,9.70
2017-03-26T04:53:47.157Z,10.22
2017-03-26T04:54:52.805Z,10.27
2017-03-26T04:55:57.602Z,10.63
2017-03-26T04:57:03.107Z,12.63
2017-03-26T04:58:08.784Z,10.48
2017-03-26T04:59:15.292Z,9.90
2017-03-26T05:00:21.098Z,11.13
2017-03-26T05:01:26.713Z,9.92
2017-03-26T05:02:32.193Z,11.02
2017-03-26T05:03:37.371Z,9.85
2017-03-26T05:04:42.864Z,10.68
2017-03-26T05:05:48.480Z,9.75
2017-03-26T05:06:53.980Z,9.62
2017-03-26T05:07:58.905Z,9.90
2017-03-26T05:09:06.199Z,11.05
2017-03-26T05:10:11.149Z,13.27
2017-03-26T05:11:15.833Z,10.53
2017-03-26T05:12:21.382Z,9.88
2017-03-26T05:13:26.857Z,10.13
2017-03-26T05:14:33.420Z,10.28
2017-03-26T05:15:38.230Z,8.98
2017-03-26T05:16:44.604Z,10.28
2017-03-26T05:17:50.101Z,10.27
2017-03-26T05:18:55.734Z,10.07
2017-03-26T05:20:01.506Z,11.73
2017-03-26T05:21:06.200Z,12.40
2017-03-26T05:22:10.945Z,11.10
2017-03-26T05:23:16.572Z,9.78
2017-03-26T05:24:22.855Z,9.60
2017-03-26T05:25:27.620Z,11.23
2017-03-26T05:26:33.942Z,10.15
2017-03-26T05:27:38.659Z,10.28
2017-03-26T05:28:43.260Z,10.07
2017-03-26T05:29:48.008Z,11.15
2017-03-26T05:30:53.421Z,11.33
2017-03-26T05:31:58.098Z,12.00
2017-03-26T05:33:02.798Z,11.05
2017-03-26T05:34:09.201Z,11.77
2017-03-26T05:35:14.088Z,11.63
2017-03-26T05:36:19.776Z,11.82
2017-03-26T05:37:25.428Z,17.32
2017-03-26T05:38:30.921Z,13.75
2017-03-26T05:39:35.743Z,10.33
2017-03-26T05:40:41.223Z,11.22
2017-03-26T05:41:47.186Z,10.73
2017-03-26T05:42:52.002Z,11.35
2017-03-26T05:43:58.269Z,11.53
2017-03-26T05:45:03.068Z,11.97
2017-03-26T05:46:08.653Z,10.87
2017-03-26T05:47:14.326Z,11.33
2017-03-26T05:48:20.627Z,11.08
2017-03-26T05:49:25.528Z,11.13
2017-03-26T05:50:31.913Z,10.18
2017-03-26T05:51:36.793Z,10.40
2017-03-26T05:52:42.557Z,11.23
2017-03-26T05:53:48.041Z,10.73
2017-03-26T05:54:54.213Z,10.40
2017-03-26T05:55:59.693Z,10.22
2017-03-26T05:57:05.389Z,10.52
2017-03-26T05:58:10.976Z,10.80
2017-03-26T05:59:15.726Z,11.88
2017-03-26T06:00:21.382Z,9.13
2017-03-26T06:01:27.760Z,10.58
2017-03-26T06:02:32.616Z,10.25
2017-03-26T06:03:37.433Z,10.15
2017-03-26T06:04:43.062Z,11.28
2017-03-26T06:05:49.385Z,11.83
2017-03-26T06:06:54.395Z,10.80
2017-03-26T06:08:00.120Z,11.93
2017-03-26T06:09:06.272Z,11.97
2017-03-26T06:10:11.148Z,12.93
2017-03-26T06:11:16.869Z,10.82
2017-03-26T06:12:23.161Z,11.68
2017-03-26T06:13:29.469Z,11.82
2017-03-26T06:14:34.873Z,10.33
2017-03-26T06:15:40.227Z,10.92
2017-03-26T06:16:45.749Z,12.58
2017-03-26T06:17:51.306Z,10.57
2017-03-26T06:18:56.230Z,10.42
2017-03-26T06:20:02.987Z,10.62
2017-03-26T06:21:09.328Z,9.90
2017-03-26T06:22:14.290Z,11.02
2017-03-26T06:23:19.859Z,9.97
2017-03-26T06:24:26.277Z,12.02
2017-03-26T06:25:31.973Z,10.53
2017-03-26T06:26:36.821Z,11.60
2017-03-26T06:27:42.310Z,10.00
2017-03-26T06:28:47.289Z,10.58
2017-03-26T06:29:52.834Z,9.47
2017-03-26T06:30:57.668Z,10.22
2017-03-26T06:32:03.293Z,10.60
2017-03-26T06:33:09.691Z,9.13
2017-03-26T06:34:14.645Z,10.90
2017-03-26T06:35:20.218Z,10.33
2017-03-26T06:36:26.653Z,10.25
2017-03-26T06:37:32.150Z,11.63
2017-03-26T06:38:36.917Z,11.73
2017-03-26T06:39:41.756Z,8.87
2017-03-26T06:40:47.445Z,9.00
2017-03-26T06:41:53.132Z,9.90
2017-03-26T06:42:58.638Z,9.95
2017-03-26T06:44:04.258Z,9.85
2017-03-26T06:45:10.692Z,11.97
2017-03-26T06:46:16.317Z,9.23
2017-03-26T06:47:21.900Z,10.17
2017-03-26T06:48:26.647Z,9.97
2017-03-26T06:49:32.262Z,9.48
2017-03-26T06:50:38.640Z,12.65
2017-03-26T06:51:43.526Z,10.95
2017-03-26T06:52:49.137Z,9.88
2017-03-26T06:53:54.669Z,11.85
2017-03-26T06:55:00.198Z,8.98
2017-03-26T06:56:05.781Z,9.52
2017-03-26T06:57:11.374Z,10.25
2017-03-26T06:58:17.061Z,9.08
2017-03-26T06:59:22.689Z,9.27
2017-03-26T07:00:28.270Z,9.85
2017-03-26T07:01:34.650Z,8.85
2017-03-26T07:02:42.505Z,10.38
2017-03-26T07:03:47.275Z,9.23
2017-03-26T07:04:52.869Z,10.85
2017-03-26T07:05:58.350Z,9.92
2017-03-26T07:07:04.148Z,10.55
2017-03-26T07:08:08.909Z,10.15
2017-03-26T07:09:15.153Z,9.80
2017-03-26T07:10:19.964Z,9.52
2017-03-26T07:11:26.344Z,9.42
2017-03-26T07:12:32.671Z,10.25
2017-03-26T07:13:38.432Z,27.50
2017-03-26T07:14:44.106Z,14.92
2017-03-26T07:15:49.721Z,12.45
2017-03-26T07:16:54.552Z,12.05
2017-03-26T07:18:01.013Z,10.58
2017-03-26T07:19:06.601Z,11.35
2017-03-26T07:20:12.257Z,10.87
2017-03-26T07:21:16.988Z,11.17
2017-03-26T07:22:23.334Z,9.18
2017-03-26T07:23:28.155Z,11.30
2017-03-26T07:24:33.748Z,12.02
2017-03-26T07:25:39.433Z,11.70
2017-03-26T07:26:45.026Z,10.68
2017-03-26T07:27:50.521Z,10.32
2017-03-26T07:28:57.078Z,9.78
2017-03-26T07:30:02.558Z,11.63
2017-03-26T07:31:07.362Z,9.83
2017-03-26T07:32:13.029Z,11.02
2017-03-26T07:33:19.449Z,12.07
2017-03-26T07:34:25.013Z,12.48
2017-03-26T07:35:29.991Z,10.10
2017-03-26T07:36:35.584Z,10.40
2017-03-26T07:37:41.170Z,10.42
2017-03-26T07:38:46.757Z,10.45
2017-03-26T07:39:53.115Z,9.23
2017-03-26T07:40:57.865Z,11.00
2017-03-26T07:42:03.604Z,10.80
2017-03-26T07:43:09.107Z,9.08
2017-03-26T07:44:14.816Z,11.35
2017-03-26T07:45:20.298Z,10.88
2017-03-26T07:46:25.781Z,12.07
2017-03-26T07:47:31.375Z,10.93
2017-03-26T07:48:36.121Z,10.23
2017-03-26T07:49:42.401Z,10.35
2017-03-26T07:50:47.273Z,10.32
2017-03-26T07:51:53.477Z,10.60
2017-03-26T07:52:58.787Z,10.93
2017-03-26T07:54:05.373Z,10.32
2017-03-26T07:55:10.970Z,10.48
2017-03-26T07:56:15.737Z,9.73
2017-03-26T07:57:22.052Z,9.67
2017-03-26T07:58:26.748Z,11.78
2017-03-26T07:59:33.124Z,10.90
2017-03-26T08:00:38.726Z,9.65
2017-03-26T08:01:43.452Z,9.48
2017-03-26T08:02:48.273Z,12.02
2017-03-26T08:03:53.843Z,9.45
2017-03-26T08:05:00.243Z,11.62
2017-03-26T08:06:06.204Z,9.45
2017-03-26T08:07:12.618Z,8.70
2017-03-26T08:08:17.382Z,9.30
2017-03-26T08:09:24.809Z,9.13
2017-03-26T08:10:29.617Z,9.80
2017-03-26T08:11:35.209Z,10.25
2017-03-26T08:12:39.908Z,9.25
2017-03-26T08:13:45.448Z,9.72
2017-03-26T08:14:50.293Z,9.42
2017-03-26T08:15:55.891Z,8.53
2017-03-26T08:17:02.354Z,9.08
2017-03-26T08:18:07.014Z,8.85
2017-03-26T08:19:13.501Z,10.18
2017-03-26T08:20:19.235Z,12.37
2017-03-26T08:21:24.788Z,11.20
2017-03-26T08:22:31.130Z,9.57
2017-03-26T08:23:35.948Z,8.72
2017-03-26T08:24:40.757Z,9.75
2017-03-26T08:25:46.440Z,9.87
2017-03-26T08:26:52.817Z,8.92
2017-03-26T08:27:58.403Z,9.92
2017-03-26T08:29:03.213Z,9.18
2017-03-26T08:30:07.892Z,9.15
2017-03-26T08:31:12.724Z,8.50
2017-03-26T08:32:19.109Z,8.03
2017-03-26T08:33:23.958Z,8.18
2017-03-26T08:34:29.396Z,8.32
2017-03-26T08:35:35.817Z,7.80
2017-03-26T08:36:41.378Z,6.53
2017-03-26T08:37:46.326Z,6.68
2017-03-26T08:38:51.969Z,8.02
2017-03-26T08:39:57.509Z,6.95
2017-03-26T08:41:03.088Z,6.38
2017-03-26T08:42:08.573Z,6.03
2017-03-26T08:43:13.501Z,6.67
2017-03-26T08:44:19.066Z,6.78
2017-03-26T08:45:25.361Z,7.57
2017-03-26T08:46:30.837Z,6.00
2017-03-26T08:47:36.591Z,7.82
2017-03-26T08:48:42.113Z,6.33
2017-03-26T08:49:47.700Z,7.25
2017-03-26T08:50:53.297Z,8.17
2017-03-26T08:51:58.136Z,5.60
2017-03-26T08:53:03.656Z,6.17
2017-03-26T08:54:08.458Z,7.75
2017-03-26T08:55:14.757Z,7.50
2017-03-26T08:56:19.593Z,9.93
2017-03-26T08:57:25.265Z,8.28
2017-03-26T08:58:31.554Z,10.13
2017-03-26T08:59:37.281Z,6.25
2017-03-26T09:00:42.100Z,9.53
2017-03-26T09:01:48.533Z,7.17
2017-03-26T09:02:53.261Z,6.22
2017-03-26T09:03:58.072Z,6.43
2017-03-26T09:05:02.797Z,7.47
2017-03-26T09:06:08.362Z,6.73
2017-03-26T09:07:14.633Z,7.80
2017-03-26T09:08:19.437Z,8.80
2017-03-26T09:09:26.737Z,6.93
2017-03-26T09:10:31.557Z,8.83
2017-03-26T09:11:37.658Z,5.60
2017-03-26T09:12:43.329Z,7.38
2017-03-26T09:13:48.005Z,6.32
2017-03-26T09:14:54.437Z,7.87
2017-03-26T09:15:59.089Z,6.43
2017-03-26T09:17:04.666Z,7.22
2017-03-26T09:18:09.495Z,7.32
2017-03-26T09:19:15.970Z,7.82
2017-03-26T09:20:21.572Z,5.75
2017-03-26T09:21:27.080Z,6.47
2017-03-26T09:22:31.817Z,7.58
2017-03-26T09:23:38.253Z,9.67
2017-03-26T09:24:43.046Z,7.10
2017-03-26T09:25:49.510Z,6.55
2017-03-26T09:26:55.168Z,9.32
2017-03-26T09:28:00.962Z,9.87
2017-03-26T09:29:06.001Z,11.32
2017-03-26T09:30:11.625Z,5.85
2017-03-26T09:31:17.176Z,8.53
2017-03-26T09:32:22.161Z,6.72
2017-03-26T09:33:27.909Z,5.70
2017-03-26T09:34:33.485Z,6.00
2017-03-26T09:35:39.073Z,6.68
2017-03-26T09:36:44.604Z,6.62
2017-03-26T09:37:50.237Z,5.32
2017-03-26T09:38:55.745Z,6.43
2017-03-26T09:40:00.396Z,8.15
2017-03-26T09:41:05.760Z,6.55
2017-03-26T09:42:10.861Z,5.45
2017-03-26T09:43:16.484Z,8.22
2017-03-26T09:44:22.072Z,7.68
2017-03-26T09:45:28.417Z,7.02
2017-03-26T09:46:33.985Z,6.48
2017-03-26T09:47:39.853Z,5.95
2017-03-26T09:48:45.286Z,7.98
2017-03-26T09:49:50.832Z,7.52
2017-03-26T09:50:56.449Z,8.95
2017-03-26T09:52:01.448Z,8.32
2017-03-26T09:53:07.067Z,5.43
2017-03-26T09:54:12.614Z,8.80
2017-03-26T09:55:18.213Z,8.07
2017-03-26T09:56:23.002Z,7.68
2017-03-26T09:57:28.424Z,9.30
2017-03-26T09:58:34.002Z,6.75
2017-03-26T09:59:38.865Z,7.20
2017-03-26T10:00:45.185Z,8.40
2017-03-26T10:01:50.844Z,6.32
2017-03-26T10:02:55.657Z,8.88
2017-03-26T10:04:00.380Z,8.65
2017-03-26T10:05:05.924Z,6.85
2017-03-26T10:06:11.572Z,5.68
2017-03-26T10:07:16.433Z,5.27
2017-03-26T10:08:22.057Z,8.43
2017-03-26T10:09:29.344Z,5.17
2017-03-26T10:10:34.910Z,5.22
2017-03-26T10:11:40.609Z,7.05
2017-03-26T10:12:46.144Z,5.30
2017-03-26T10:13:51.874Z,9.38
2017-03-26T10:14:57.477Z,7.27
2017-03-26T10:16:02.342Z,5.67
2017-03-26T10:17:08.709Z,7.15
2017-03-26T10:18:14.364Z,5.88
2017-03-26T10:19:20.018Z,6.73
2017-03-26T10:20:24.837Z,6.17
2017-03-26T10:21:30.446Z,5.80
2017-03-26T10:22:36.050Z,5.83
2017-03-26T10:23:42.477Z,10.80
2017-03-26T10:24:48.265Z,7.80
2017-03-26T10:25:54.480Z,5.12
2017-03-26T10:26:59.897Z,5.42
2017-03-26T10:28:04.777Z,6.37
2017-03-26T10:29:10.576Z,8.18
2017-03-26T10:30:16.870Z,6.03
2017-03-26T10:31:23.326Z,7.68
2017-03-26T10:32:28.912Z,6.28
2017-03-26T10:33:33.796Z,5.92
2017-03-26T10:34:39.390Z,8.95
2017-03-26T10:35:44.886Z,6.13
2017-03-26T10:36:49.685Z,8.70
2017-03-26T10:37:55.962Z,7.43
2017-03-26T10:39:00.885Z,7.45
2017-03-26T10:40:06.516Z,8.58
2017-03-26T10:41:12.809Z,7.80
2017-03-26T10:42:18.342Z,7.38
2017-03-26T10:43:23.855Z,7.03
2017-03-26T10:44:28.693Z,8.82
2017-03-26T10:45:33.453Z,4.75
2017-03-26T10:46:39.725Z,6.93
2017-03-26T10:47:45.417Z,5.97
2017-03-26T10:48:50.894Z,5.87
2017-03-26T10:49:55.681Z,7.65
2017-03-26T10:51:00.576Z,7.62
2017-03-26T10:52:05.206Z,7.03
2017-03-26T10:53:10.906Z,6.18
2017-03-26T10:54:15.781Z,6.07
2017-03-26T10:55:22.066Z,7.00
2017-03-26T10:56:27.933Z,6.65
2017-03-26T10:57:32.577Z,5.62
2017-03-26T10:58:38.213Z,6.82
2017-03-26T10:59:44.389Z,6.58
2017-03-26T11:00:50.186Z,6.05
2017-03-26T11:01:54.970Z,6.97
2017-03-26T11:03:00.580Z,8.58
2017-03-26T11:04:06.143Z,5.95
2017-03-26T11:05:10.952Z,7.15
2017-03-26T11:06:17.381Z,4.98
2017-03-26T11:07:22.088Z,6.55
2017-03-26T11:08:26.938Z,6.47
2017-03-26T11:09:33.169Z,4.63
2017-03-26T11:10:38.070Z,5.67
2017-03-26T11:11:43.613Z,5.23
2017-03-26T11:12:49.137Z,5.65
2017-03-26T11:13:54.740Z,6.00
2017-03-26T11:15:00.363Z,7.72
2017-03-26T11:16:06.772Z,4.37
2017-03-26T11:17:12.509Z,5.58
2017-03-26T11:18:17.414Z,6.98
2017-03-26T11:19:23.822Z,4.57
2017-03-26T11:20:29.569Z,5.23
2017-03-26T11:21:34.672Z,6.92
2017-03-26T11:22:41.138Z,6.50
2017-03-26T11:23:45.965Z,6.05
2017-03-26T11:24:51.595Z,6.80
2017-03-26T11:25:57.261Z,3.25
2017-03-26T11:27:03.398Z,5.75
2017-03-26T11:28:08.106Z,5.53
2017-03-26T11:29:14.637Z,4.72
2017-03-26T11:30:19.328Z,4.77
2017-03-26T11:31:25.795Z,5.02
2017-03-26T11:32:30.521Z,4.32
2017-03-26T11:33:36.147Z,6.92
2017-03-26T11:34:41.806Z,4.08
2017-03-26T11:35:47.416Z,4.08
2017-03-26T11:36:53.077Z,5.45
2017-03-26T11:37:57.817Z,5.30
2017-03-26T11:39:03.407Z,6.40
2017-03-26T11:40:09.787Z,4.52
2017-03-26T11:41:15.353Z,5.10
2017-03-26T11:42:20.959Z,4.15
2017-03-26T11:43:25.741Z,3.98
2017-03-26T11:44:32.067Z,4.85
2017-03-26T11:45:36.968Z,4.60
2017-03-26T11:46:42.631Z,3.87
2017-03-26T11:47:49.034Z,4.28
2017-03-26T11:48:54.601Z,3.50
2017-03-26T11:49:59.388Z,3.63
2017-03-26T11:51:05.812Z,6.77
2017-03-26T11:52:11.259Z,5.15
2017-03-26T11:53:16.202Z,5.27
2017-03-26T11:54:22.576Z,3.47
2017-03-26T11:55:28.016Z,4.75
2017-03-26T11:56:32.770Z,5.02
2017-03-26T11:57:39.274Z,3.53
2017-03-26T11:58:44.791Z,3.73
2017-03-26T11:59:51.287Z,5.05
2017-03-26T12:00:56.985Z,4.55
2017-03-26T12:02:02.724Z,2.67
2017-03-26T12:03:07.434Z,4.33
2017-03-26T12:04:13.211Z,4.02
2017-03-26T12:05:18.589Z,3.78
2017-03-26T12:06:25.055Z,3.43
2017-03-26T12:07:29.979Z,4.05
2017-03-26T12:08:35.734Z,3.80
2017-03-26T12:09:42.109Z,6.42
2017-03-26T12:10:47.697Z,3.00
2017-03-26T12:11:53.304Z,6.40
2017-03-26T12:12:58.362Z,5.03
2017-03-26T12:14:03.913Z,3.30
2017-03-26T12:15:09.401Z,6.38
2017-03-26T12:16:16.308Z,4.97
2017-03-26T12:17:21.679Z,3.88
2017-03-26T12:18:27.184Z,4.75
2017-03-26T12:19:31.879Z,3.60
2017-03-26T12:20:38.321Z,4.83
2017-03-26T12:21:43.177Z,4.15
2017-03-26T12:22:49.417Z,5.08
2017-03-26T12:23:54.121Z,8.33
2017-03-26T12:25:00.390Z,3.10
2017-03-26T12:26:05.382Z,3.32
2017-03-26T12:27:11.532Z,3.10
2017-03-26T12:28:16.361Z,3.62
2017-03-26T12:29:22.813Z,3.28
2017-03-26T12:30:27.717Z,6.42
2017-03-26T12:31:33.305Z,4.92
2017-03-26T12:32:38.825Z,3.43
2017-03-26T12:33:44.508Z,3.27
2017-03-26T12:34:49.985Z,5.63
2017-03-26T12:35:55.522Z,3.97
2017-03-26T12:37:01.076Z,5.00
2017-03-26T12:38:06.760Z,3.90
2017-03-26T12:39:11.628Z,3.50
2017-03-26T12:40:16.376Z,3.77
2017-03-26T12:41:21.928Z,3.75
2017-03-26T12:42:28.268Z,6.40
2017-03-26T12:43:33.061Z,5.03
2017-03-26T12:44:38.714Z,2.88
2017-03-26T12:45:43.433Z,3.43
2017-03-26T12:46:48.914Z,2.85
2017-03-26T12:47:54.521Z,2.25
2017-03-26T12:49:00.053Z,3.00
2017-03-26T12:50:05.970Z,3.70
2017-03-26T12:51:11.665Z,2.75
2017-03-26T12:52:17.153Z,3.92
2017-03-26T12:53:23.544Z,2.35
2017-03-26T12:54:29.118Z,4.85
2017-03-26T12:55:34.750Z,3.47
2017-03-26T12:56:40.289Z,2.52
2017-03-26T12:57:45.203Z,3.67
2017-03-26T12:58:50.763Z,4.88
2017-03-26T12:59:57.353Z,2.52
2017-03-26T13:01:03.137Z,5.85
2017-03-26T13:02:09.232Z,4.32
2017-03-26T13:03:15.002Z,3.13
2017-03-26T13:04:20.783Z,3.00
2017-03-26T13:05:25.570Z,3.52
2017-03-26T13:06:31.049Z,3.93
2017-03-26T13:07:37.409Z,3.68
2017-03-26T13:08:43.131Z,2.58
2017-03-26T13:09:48.952Z,3.95
2017-03-26T13:10:54.529Z,7.03
2017-03-26T13:11:59.308Z,3.45
2017-03-26T13:13:04.829Z,5.77
2017-03-26T13:14:10.493Z,5.00
2017-03-26T13:15:17.573Z,3.35
2017-03-26T13:16:23.178Z,3.03
2017-03-26T13:17:28.873Z,4.70
2017-03-26T13:18:35.332Z,4.02
2017-03-26T13:19:40.150Z,3.72
2017-03-26T13:20:45.792Z,3.65
2017-03-26T13:21:51.982Z,4.25
2017-03-26T13:22:56.703Z,4.35
2017-03-26T13:24:02.957Z,3.10
2017-03-26T13:25:07.829Z,3.68
2017-03-26T13:26:14.196Z,3.23
2017-03-26T13:27:19.850Z,6.27
2017-03-26T13:28:26.631Z,4.55
2017-03-26T13:29:32.074Z,6.32
2017-03-26T13:30:38.382Z,3.88
2017-03-26T13:31:43.082Z,2.95
2017-03-26T13:32:48.777Z,6.98
2017-03-26T13:33:54.386Z,4.27
2017-03-26T13:35:01.036Z,5.90
2017-03-26T13:36:07.528Z,4.87
2017-03-26T13:37:13.077Z,3.07
2017-03-26T13:38:17.977Z,4.37
2017-03-26T13:39:23.738Z,5.00
2017-03-26T13:40:29.357Z,3.40
2017-03-26T13:41:34.765Z,3.17
2017-03-26T13:42:40.387Z,3.30
2017-03-26T13:43:45.891Z,5.85
2017-03-26T13:44:52.309Z,5.52
2017-03-26T13:45:57.035Z,6.00
2017-03-26T13:47:03.289Z,5.53
2017-03-26T13:48:08.183Z,4.40
2017-03-26T13:49:13.694Z,4.83
2017-03-26T13:50:19.226Z,4.53
2017-03-26T13:51:24.911Z,4.07
2017-03-26T13:52:29.862Z,3.65
2017-03-26T13:53:36.157Z,3.62
2017-03-26T13:54:40.830Z,5.73
2017-03-26T13:55:45.598Z,4.87
2017-03-26T13:56:51.904Z,4.07
2017-03-26T13:57:57.449Z,4.42
2017-03-26T13:59:03.293Z,4.60
2017-03-26T14:00:08.051Z,3.77
2017-03-26T14:01:13.708Z,3.65
2017-03-26T14:02:19.977Z,4.32
2017-03-26T14:03:25.550Z,4.37
2017-03-26T14:04:30.561Z,4.68
2017-03-26T14:05:36.033Z,3.95
2017-03-26T14:06:41.724Z,3.18
2017-03-26T14:07:47.493Z,3.80
2017-03-26T14:08:53.756Z,3.42
2017-03-26T14:10:00.276Z,4.47
2017-03-26T14:11:05.819Z,3.42
2017-03-26T14:12:11.610Z,3.90
2017-03-26T14:13:18.078Z,4.28
2017-03-26T14:14:22.801Z,3.17
2017-03-26T14:15:28.375Z,3.97
2017-03-26T14:16:34.856Z,4.05
2017-03-26T14:17:39.496Z,4.35
2017-03-26T14:18:45.905Z,3.45